sensor_id;sensor_type;location;lat;lon;timestamp;temperature;humidity
21115;DHT22;10715;48.546;9.896;2022-09-09T00:04:35;8.70;99.90
21115;DHT22;10715;48.546;9.896;2022-09-09T00:09:47;8.70;99.90
21115;DHT22;10715;48.546;9.896;2022-09-09T00:15:45;8.70;99.90
21115;DHT22;10715;48.546;9.896;2022-09-09T00:18:24;8.70;99.90
21115;DHT22;10715;48.546;9.896;2022-09-09T00:21:11;8.70;99.90
21115;DHT22;10715;48.546;9.896;2022-09-09T00:23:39;8.70;99.90
21115;DHT22;10715;48.546;9.896;2022-09-09T00:26:42;8.60;99.90
21115;DHT22;10715;48.546;9.896;2022-09-09T00:31:30;8.60;99.90
21115;DHT22;10715;48.546;9.896;2022-09-09T00:34:18;8.50;99.90
21115;DHT22;10715;48.546;9.896;2022-09-09T00:36:45;8.50;99.90
21115;DHT22;10715;48.546;9.896;2022-09-09T00:44:32;8.50;99.90
21115;DHT22;10715;48.546;9.896;2022-09-09T00:47:34;8.40;99.90
21115;DHT22;10715;48.546;9.896;2022-09-09T01:02:25;8.30;99.90
21115;DHT22;10715;48.546;9.896;2022-09-09T01:04:53;8.20;99.90
21115;DHT22;10715;48.546;9.896;2022-09-09T01:07:20;8.20;99.90
21115;DHT22;10715;48.546;9.896;2022-09-09T01:10:07;8.20;99.90
21115;DHT22;10715;48.546;9.896;2022-09-09T01:12:42;8.20;99.90
21115;DHT22;10715;48.546;9.896;2022-09-09T01:18:05;8.20;99.90
21115;DHT22;10715;48.546;9.896;2022-09-09T01:23:34;8.20;99.90
21115;DHT22;10715;48.546;9.896;2022-09-09T01:28:54;8.00;99.90
21115;DHT22;10715;48.546;9.896;2022-09-09T01:34:16;7.90;99.90
21115;DHT22;10715;48.546;9.896;2022-09-09T01:39:30;7.80;99.90
21115;DHT22;10715;48.546;9.896;2022-09-09T01:41:56;7.70;99.90
21115;DHT22;10715;48.546;9.896;2022-09-09T01:44:23;7.70;99.90
21115;DHT22;10715;48.546;9.896;2022-09-09T01:46:49;7.60;99.90
21115;DHT22;10715;48.546;9.896;2022-09-09T01:49:16;7.60;99.90
21115;DHT22;10715;48.546;9.896;2022-09-09T01:51:43;7.60;99.90
21115;DHT22;10715;48.546;9.896;2022-09-09T01:54:09;7.60;99.90
21115;DHT22;10715;48.546;9.896;2022-09-09T01:59:24;7.60;99.90
21115;DHT22;10715;48.546;9.896;2022-09-09T02:04:53;7.60;99.90
21115;DHT22;10715;48.546;9.896;2022-09-09T02:07:50;7.50;99.90
21115;DHT22;10715;48.546;9.896;2022-09-09T02:10:38;7.50;99.90
21115;DHT22;10715;48.546;9.896;2022-09-09T02:13:10;7.60;99.90
21115;DHT22;10715;48.546;9.896;2022-09-09T02:15:57;7.50;99.90
21115;DHT22;10715;48.546;9.896;2022-09-09T02:18:46;7.50;99.90
21115;DHT22;10715;48.546;9.896;2022-09-09T02:21:14;7.50;99.90
21115;DHT22;10715;48.546;9.896;2022-09-09T02:23:42;7.50;99.90
21115;DHT22;10715;48.546;9.896;2022-09-09T02:26:10;7.60;99.90
21115;DHT22;10715;48.546;9.896;2022-09-09T02:28:39;7.50;99.90
21115;DHT22;10715;48.546;9.896;2022-09-09T02:31:06;7.60;99.90
21115;DHT22;10715;48.546;9.896;2022-09-09T02:33:40;7.60;99.90
21115;DHT22;10715;48.546;9.896;2022-09-09T02:36:09;7.70;99.90
21115;DHT22;10715;48.546;9.896;2022-09-09T02:38:42;7.70;99.90
21115;DHT22;10715;48.546;9.896;2022-09-09T02:41:11;7.70;99.90
21115;DHT22;10715;48.546;9.896;2022-09-09T02:43:36;7.80;99.90
21115;DHT22;10715;48.546;9.896;2022-09-09T02:52:08;7.70;99.90
21115;DHT22;10715;48.546;9.896;2022-09-09T02:54:39;7.80;99.90
21115;DHT22;10715;48.546;9.896;2022-09-09T02:57:16;7.90;99.90
21115;DHT22;10715;48.546;9.896;2022-09-09T02:59:45;8.00;99.90
21115;DHT22;10715;48.546;9.896;2022-09-09T03:02:12;8.10;99.90
21115;DHT22;10715;48.546;9.896;2022-09-09T03:04:39;8.20;99.90
21115;DHT22;10715;48.546;9.896;2022-09-09T03:07:05;8.30;99.90
21115;DHT22;10715;48.546;9.896;2022-09-09T03:09:31;8.30;99.90
21115;DHT22;10715;48.546;9.896;2022-09-09T03:11:58;8.30;99.90
21115;DHT22;10715;48.546;9.896;2022-09-09T03:14:24;8.30;99.90
21115;DHT22;10715;48.546;9.896;2022-09-09T03:16:53;8.40;99.90
21115;DHT22;10715;48.546;9.896;2022-09-09T03:19:20;8.40;99.90
21115;DHT22;10715;48.546;9.896;2022-09-09T03:21:47;8.40;99.90
21115;DHT22;10715;48.546;9.896;2022-09-09T03:24:13;8.50;99.90
21115;DHT22;10715;48.546;9.896;2022-09-09T03:26:40;8.50;99.90
21115;DHT22;10715;48.546;9.896;2022-09-09T03:29:06;8.60;99.90
21115;DHT22;10715;48.546;9.896;2022-09-09T03:31:35;8.60;99.90
21115;DHT22;10715;48.546;9.896;2022-09-09T03:34:02;8.70;99.90
21115;DHT22;10715;48.546;9.896;2022-09-09T03:36:27;8.70;99.90
21115;DHT22;10715;48.546;9.896;2022-09-09T03:38:54;8.70;99.90
21115;DHT22;10715;48.546;9.896;2022-09-09T03:41:23;8.80;99.90
21115;DHT22;10715;48.546;9.896;2022-09-09T03:43:50;8.80;99.90
21115;DHT22;10715;48.546;9.896;2022-09-09T03:46:17;8.90;99.90
21115;DHT22;10715;48.546;9.896;2022-09-09T03:48:43;8.90;99.90
21115;DHT22;10715;48.546;9.896;2022-09-09T03:51:09;9.00;99.90
21115;DHT22;10715;48.546;9.896;2022-09-09T03:53:36;9.10;99.90
21115;DHT22;10715;48.546;9.896;2022-09-09T03:56:04;9.10;99.90
21115;DHT22;10715;48.546;9.896;2022-09-09T03:58:36;9.20;99.90
21115;DHT22;10715;48.546;9.896;2022-09-09T04:01:08;9.30;99.90
21115;DHT22;10715;48.546;9.896;2022-09-09T04:03:39;9.30;99.90
21115;DHT22;10715;48.546;9.896;2022-09-09T04:06:07;9.30;99.90
21115;DHT22;10715;48.546;9.896;2022-09-09T04:08:35;9.40;99.90
21115;DHT22;10715;48.546;9.896;2022-09-09T04:11:02;9.40;99.90
21115;DHT22;10715;48.546;9.896;2022-09-09T04:13:30;9.40;99.90
21115;DHT22;10715;48.546;9.896;2022-09-09T04:16:01;9.50;99.90
21115;DHT22;10715;48.546;9.896;2022-09-09T04:18:27;9.40;99.90
21115;DHT22;10715;48.546;9.896;2022-09-09T04:20:56;9.40;99.90
21115;DHT22;10715;48.546;9.896;2022-09-09T04:23:23;9.40;99.90
21115;DHT22;10715;48.546;9.896;2022-09-09T04:25:54;9.40;99.90
21115;DHT22;10715;48.546;9.896;2022-09-09T04:28:22;9.40;99.90
21115;DHT22;10715;48.546;9.896;2022-09-09T04:30:48;9.40;99.90
21115;DHT22;10715;48.546;9.896;2022-09-09T04:33:14;9.40;99.90
21115;DHT22;10715;48.546;9.896;2022-09-09T04:35:48;9.40;99.90
21115;DHT22;10715;48.546;9.896;2022-09-09T04:38:15;9.40;99.90
21115;DHT22;10715;48.546;9.896;2022-09-09T04:40:47;9.40;99.90
21115;DHT22;10715;48.546;9.896;2022-09-09T04:43:13;9.50;99.90
21115;DHT22;10715;48.546;9.896;2022-09-09T04:45:40;9.50;99.90
21115;DHT22;10715;48.546;9.896;2022-09-09T04:48:06;9.50;99.90
21115;DHT22;10715;48.546;9.896;2022-09-09T04:50:32;9.50;99.90
21115;DHT22;10715;48.546;9.896;2022-09-09T04:53:04;9.60;99.90
21115;DHT22;10715;48.546;9.896;2022-09-09T04:55:31;9.60;99.90
21115;DHT22;10715;48.546;9.896;2022-09-09T04:57:57;9.60;99.90
21115;DHT22;10715;48.546;9.896;2022-09-09T05:00:23;9.60;99.90
21115;DHT22;10715;48.546;9.896;2022-09-09T05:02:49;9.70;99.90
21115;DHT22;10715;48.546;9.896;2022-09-09T05:05:15;9.70;99.90
21115;DHT22;10715;48.546;9.896;2022-09-09T05:07:42;9.70;99.90
21115;DHT22;10715;48.546;9.896;2022-09-09T05:10:09;9.80;99.90
21115;DHT22;10715;48.546;9.896;2022-09-09T05:12:35;9.70;99.90
21115;DHT22;10715;48.546;9.896;2022-09-09T05:15:01;9.80;99.90
21115;DHT22;10715;48.546;9.896;2022-09-09T05:17:27;9.80;99.90
21115;DHT22;10715;48.546;9.896;2022-09-09T05:19:53;9.80;99.90
21115;DHT22;10715;48.546;9.896;2022-09-09T05:22:22;9.90;99.90
21115;DHT22;10715;48.546;9.896;2022-09-09T05:24:49;9.90;99.90
21115;DHT22;10715;48.546;9.896;2022-09-09T05:27:17;9.90;99.90
21115;DHT22;10715;48.546;9.896;2022-09-09T05:29:45;9.90;99.90
21115;DHT22;10715;48.546;9.896;2022-09-09T05:32:11;10.00;99.90
21115;DHT22;10715;48.546;9.896;2022-09-09T05:34:36;10.00;99.90
21115;DHT22;10715;48.546;9.896;2022-09-09T05:37:03;10.00;99.90
21115;DHT22;10715;48.546;9.896;2022-09-09T05:39:30;10.00;99.90
21115;DHT22;10715;48.546;9.896;2022-09-09T05:41:55;10.00;99.90
21115;DHT22;10715;48.546;9.896;2022-09-09T05:44:21;10.00;99.90
21115;DHT22;10715;48.546;9.896;2022-09-09T05:46:49;10.00;99.90
21115;DHT22;10715;48.546;9.896;2022-09-09T05:49:15;10.00;99.90
21115;DHT22;10715;48.546;9.896;2022-09-09T05:51:41;10.20;99.90
21115;DHT22;10715;48.546;9.896;2022-09-09T05:54:08;10.30;99.90
21115;DHT22;10715;48.546;9.896;2022-09-09T05:56:34;10.50;99.90
21115;DHT22;10715;48.546;9.896;2022-09-09T05:59:00;10.60;99.90
21115;DHT22;10715;48.546;9.896;2022-09-09T06:01:31;10.70;99.90
21115;DHT22;10715;48.546;9.896;2022-09-09T06:03:58;10.80;99.90
21115;DHT22;10715;48.546;9.896;2022-09-09T06:06:26;10.90;99.90
21115;DHT22;10715;48.546;9.896;2022-09-09T06:08:54;11.00;99.90
21115;DHT22;10715;48.546;9.896;2022-09-09T06:11:22;11.10;99.90
21115;DHT22;10715;48.546;9.896;2022-09-09T06:13:49;11.20;99.90
21115;DHT22;10715;48.546;9.896;2022-09-09T06:16:20;11.30;99.90
21115;DHT22;10715;48.546;9.896;2022-09-09T06:18:48;11.30;99.90
21115;DHT22;10715;48.546;9.896;2022-09-09T06:21:18;11.40;99.90
21115;DHT22;10715;48.546;9.896;2022-09-09T06:23:44;11.40;99.90
21115;DHT22;10715;48.546;9.896;2022-09-09T06:28:38;11.60;99.90
21115;DHT22;10715;48.546;9.896;2022-09-09T06:31:06;11.60;99.90
21115;DHT22;10715;48.546;9.896;2022-09-09T06:33:34;11.70;99.90
21115;DHT22;10715;48.546;9.896;2022-09-09T06:36:02;11.80;99.90
21115;DHT22;10715;48.546;9.896;2022-09-09T06:38:29;12.00;99.90
21115;DHT22;10715;48.546;9.896;2022-09-09T06:40:56;12.20;99.90
21115;DHT22;10715;48.546;9.896;2022-09-09T06:43:24;12.40;99.90
21115;DHT22;10715;48.546;9.896;2022-09-09T06:46:01;12.70;99.90
21115;DHT22;10715;48.546;9.896;2022-09-09T06:48:28;12.90;99.90
21115;DHT22;10715;48.546;9.896;2022-09-09T06:51:05;13.10;99.90
21115;DHT22;10715;48.546;9.896;2022-09-09T06:53:32;13.20;99.90
21115;DHT22;10715;48.546;9.896;2022-09-09T06:58:49;13.50;99.90
21115;DHT22;10715;48.546;9.896;2022-09-09T07:01:23;13.70;99.90
21115;DHT22;10715;48.546;9.896;2022-09-09T07:03:51;13.80;99.90
21115;DHT22;10715;48.546;9.896;2022-09-09T07:06:22;14.00;99.90
21115;DHT22;10715;48.546;9.896;2022-09-09T07:08:54;14.30;99.90
21115;DHT22;10715;48.546;9.896;2022-09-09T07:11:21;14.60;99.90
21115;DHT22;10715;48.546;9.896;2022-09-09T07:13:48;14.80;99.90
21115;DHT22;10715;48.546;9.896;2022-09-09T07:16:18;15.20;99.90
21115;DHT22;10715;48.546;9.896;2022-09-09T07:18:44;15.50;99.90
21115;DHT22;10715;48.546;9.896;2022-09-09T07:21:11;15.90;99.90
21115;DHT22;10715;48.546;9.896;2022-09-09T07:23:38;16.30;99.90
21115;DHT22;10715;48.546;9.896;2022-09-09T07:26:16;16.60;99.90
21115;DHT22;10715;48.546;9.896;2022-09-09T07:28:42;16.80;99.90
21115;DHT22;10715;48.546;9.896;2022-09-09T07:31:16;17.00;99.90
21115;DHT22;10715;48.546;9.896;2022-09-09T07:33:43;17.30;99.90
21115;DHT22;10715;48.546;9.896;2022-09-09T07:38:46;17.70;99.90
21115;DHT22;10715;48.546;9.896;2022-09-09T07:41:19;17.80;99.90
21115;DHT22;10715;48.546;9.896;2022-09-09T07:43:46;18.10;99.90
21115;DHT22;10715;48.546;9.896;2022-09-09T07:46:14;18.30;99.90
21115;DHT22;10715;48.546;9.896;2022-09-09T07:48:45;18.40;99.90
21115;DHT22;10715;48.546;9.896;2022-09-09T07:51:13;18.50;99.90
21115;DHT22;10715;48.546;9.896;2022-09-09T07:53:44;18.70;99.90
21115;DHT22;10715;48.546;9.896;2022-09-09T07:56:12;18.80;99.90
21115;DHT22;10715;48.546;9.896;2022-09-09T07:58:39;18.90;99.90
21115;DHT22;10715;48.546;9.896;2022-09-09T08:01:13;19.00;99.90
21115;DHT22;10715;48.546;9.896;2022-09-09T08:03:39;19.10;99.90
21115;DHT22;10715;48.546;9.896;2022-09-09T08:06:07;19.00;99.90
21115;DHT22;10715;48.546;9.896;2022-09-09T08:08:35;19.10;99.90
21115;DHT22;10715;48.546;9.896;2022-09-09T08:11:08;19.20;99.90
21115;DHT22;10715;48.546;9.896;2022-09-09T08:13:36;19.30;99.90
21115;DHT22;10715;48.546;9.896;2022-09-09T08:16:10;19.40;99.90
21115;DHT22;10715;48.546;9.896;2022-09-09T08:18:35;19.30;99.90
21115;DHT22;10715;48.546;9.896;2022-09-09T08:21:14;19.30;99.90
21115;DHT22;10715;48.546;9.896;2022-09-09T08:23:44;19.20;99.90
21115;DHT22;10715;48.546;9.896;2022-09-09T08:26:22;19.20;99.90
21115;DHT22;10715;48.546;9.896;2022-09-09T08:28:52;19.20;99.90
21115;DHT22;10715;48.546;9.896;2022-09-09T08:31:21;19.00;99.90
21115;DHT22;10715;48.546;9.896;2022-09-09T08:33:47;19.00;99.90
21115;DHT22;10715;48.546;9.896;2022-09-09T08:36:19;19.00;99.90
21115;DHT22;10715;48.546;9.896;2022-09-09T08:38:53;19.00;99.90
21115;DHT22;10715;48.546;9.896;2022-09-09T08:50:23;19.40;99.90
21115;DHT22;10715;48.546;9.896;2022-09-09T08:53:40;19.50;99.90
21115;DHT22;10715;48.546;9.896;2022-09-09T08:55:56;19.50;99.90
21115;DHT22;10715;48.546;9.896;2022-09-09T08:58:32;19.40;99.90
21115;DHT22;10715;48.546;9.896;2022-09-09T09:01:22;19.50;99.90
21115;DHT22;10715;48.546;9.896;2022-09-09T09:07:06;20.00;99.90
21115;DHT22;10715;48.546;9.896;2022-09-09T09:12:21;20.10;99.90
21115;DHT22;10715;48.546;9.896;2022-09-09T09:14:48;20.10;99.90
21115;DHT22;10715;48.546;9.896;2022-09-09T09:17:19;20.10;99.90
21115;DHT22;10715;48.546;9.896;2022-09-09T09:19:46;20.20;99.90
21115;DHT22;10715;48.546;9.896;2022-09-09T09:22:39;20.30;99.90
21115;DHT22;10715;48.546;9.896;2022-09-09T09:25:20;20.30;99.90
21115;DHT22;10715;48.546;9.896;2022-09-09T09:27:49;20.40;99.90
21115;DHT22;10715;48.546;9.896;2022-09-09T09:30:25;20.50;99.90
21115;DHT22;10715;48.546;9.896;2022-09-09T09:33:00;20.60;99.90
21115;DHT22;10715;48.546;9.896;2022-09-09T09:35:27;20.90;99.90
21115;DHT22;10715;48.546;9.896;2022-09-09T09:37:52;21.40;99.90
21115;DHT22;10715;48.546;9.896;2022-09-09T09:40:22;21.50;99.90
21115;DHT22;10715;48.546;9.896;2022-09-09T09:42:59;22.40;99.90
21115;DHT22;10715;48.546;9.896;2022-09-09T09:45:58;23.00;99.90
21115;DHT22;10715;48.546;9.896;2022-09-09T09:48:25;23.50;99.90
21115;DHT22;10715;48.546;9.896;2022-09-09T09:53:31;23.60;99.90
21115;DHT22;10715;48.546;9.896;2022-09-09T09:56:01;23.30;99.90
21115;DHT22;10715;48.546;9.896;2022-09-09T09:58:31;22.80;99.90
21115;DHT22;10715;48.546;9.896;2022-09-09T10:01:00;22.10;99.90
21115;DHT22;10715;48.546;9.896;2022-09-09T10:03:31;21.70;99.90
21115;DHT22;10715;48.546;9.896;2022-09-09T10:05:58;21.40;99.90
21115;DHT22;10715;48.546;9.896;2022-09-09T10:08:25;21.30;99.90
21115;DHT22;10715;48.546;9.896;2022-09-09T10:30:21;32.20;66.30
21115;DHT22;10715;48.546;9.896;2022-09-09T10:32:52;33.50;61.20
21115;DHT22;10715;48.546;9.896;2022-09-09T10:35:33;34.40;56.60
21115;DHT22;10715;48.546;9.896;2022-09-09T10:43:33;33.50;53.60
21115;DHT22;10715;48.546;9.896;2022-09-09T10:51:27;28.90;61.90
21115;DHT22;10715;48.546;9.896;2022-09-09T10:54:02;26.80;68.40
21115;DHT22;10715;48.546;9.896;2022-09-09T10:56:33;25.00;74.50
21115;DHT22;10715;48.546;9.896;2022-09-09T10:59:22;23.80;77.80
21115;DHT22;10715;48.546;9.896;2022-09-09T11:04:40;22.50;82.10
21115;DHT22;10715;48.546;9.896;2022-09-09T11:07:12;22.40;79.60
21115;DHT22;10715;48.546;9.896;2022-09-09T11:09:45;24.10;82.00
21115;DHT22;10715;48.546;9.896;2022-09-09T11:12:17;27.50;68.30
21115;DHT22;10715;48.546;9.896;2022-09-09T11:14:51;30.20;62.90
21115;DHT22;10715;48.546;9.896;2022-09-09T11:17:36;31.90;57.10
21115;DHT22;10715;48.546;9.896;2022-09-09T11:20:06;32.60;55.20
21115;DHT22;10715;48.546;9.896;2022-09-09T11:25:35;30.50;58.40
21115;DHT22;10715;48.546;9.896;2022-09-09T11:28:44;29.20;60.60
21115;DHT22;10715;48.546;9.896;2022-09-09T11:33:51;30.20;59.00
21115;DHT22;10715;48.546;9.896;2022-09-09T11:36:54;29.30;60.80
21115;DHT22;10715;48.546;9.896;2022-09-09T11:44:41;25.70;67.00
21115;DHT22;10715;48.546;9.896;2022-09-09T11:47:36;24.80;70.50
21115;DHT22;10715;48.546;9.896;2022-09-09T11:52:43;23.90;76.10
21115;DHT22;10715;48.546;9.896;2022-09-09T11:55:31;23.40;76.50
21115;DHT22;10715;48.546;9.896;2022-09-09T11:58:14;22.90;76.30
21115;DHT22;10715;48.546;9.896;2022-09-09T12:00:43;22.50;77.50
21115;DHT22;10715;48.546;9.896;2022-09-09T12:03:39;22.10;79.30
21115;DHT22;10715;48.546;9.896;2022-09-09T12:06:30;21.90;80.70
21115;DHT22;10715;48.546;9.896;2022-09-09T12:11:40;21.50;75.40
21115;DHT22;10715;48.546;9.896;2022-09-09T12:17:25;21.00;75.00
21115;DHT22;10715;48.546;9.896;2022-09-09T12:20:20;20.80;75.30
21115;DHT22;10715;48.546;9.896;2022-09-09T12:29:05;20.30;77.20
21115;DHT22;10715;48.546;9.896;2022-09-09T12:31:46;20.30;78.40
21115;DHT22;10715;48.546;9.896;2022-09-09T12:36:57;20.60;79.10
21115;DHT22;10715;48.546;9.896;2022-09-09T12:39:39;20.60;78.40
21115;DHT22;10715;48.546;9.896;2022-09-09T12:42:20;20.60;78.10
21115;DHT22;10715;48.546;9.896;2022-09-09T12:44:52;20.70;76.30
21115;DHT22;10715;48.546;9.896;2022-09-09T12:47:20;20.70;76.60
21115;DHT22;10715;48.546;9.896;2022-09-09T12:49:48;20.80;75.00
21115;DHT22;10715;48.546;9.896;2022-09-09T12:52:18;20.90;75.10
21115;DHT22;10715;48.546;9.896;2022-09-09T12:54:46;21.00;76.20
21115;DHT22;10715;48.546;9.896;2022-09-09T12:57:13;21.10;75.30
21115;DHT22;10715;48.546;9.896;2022-09-09T12:59:42;21.40;74.10
21115;DHT22;10715;48.546;9.896;2022-09-09T13:02:25;21.80;75.00
21115;DHT22;10715;48.546;9.896;2022-09-09T13:04:52;22.10;73.60
21115;DHT22;10715;48.546;9.896;2022-09-09T13:07:20;22.10;72.80
21115;DHT22;10715;48.546;9.896;2022-09-09T13:09:49;22.10;75.30
21115;DHT22;10715;48.546;9.896;2022-09-09T13:12:22;21.90;78.50
21115;DHT22;10715;48.546;9.896;2022-09-09T13:14:51;21.80;80.30
21115;DHT22;10715;48.546;9.896;2022-09-09T13:17:24;21.70;80.80
21115;DHT22;10715;48.546;9.896;2022-09-09T13:19:51;21.60;81.50
21115;DHT22;10715;48.546;9.896;2022-09-09T13:25:06;21.10;83.00
21115;DHT22;10715;48.546;9.896;2022-09-09T13:30:24;20.70;86.50
21115;DHT22;10715;48.546;9.896;2022-09-09T13:33:22;20.50;85.90
21115;DHT22;10715;48.546;9.896;2022-09-09T13:35:57;20.40;85.60
21115;DHT22;10715;48.546;9.896;2022-09-09T13:38:24;20.20;86.00
21115;DHT22;10715;48.546;9.896;2022-09-09T13:41:00;20.00;87.90
21115;DHT22;10715;48.546;9.896;2022-09-09T13:43:33;20.00;87.80
21115;DHT22;10715;48.546;9.896;2022-09-09T13:46:03;19.90;90.00
21115;DHT22;10715;48.546;9.896;2022-09-09T13:48:29;20.00;90.10
21115;DHT22;10715;48.546;9.896;2022-09-09T13:51:32;20.20;89.50
21115;DHT22;10715;48.546;9.896;2022-09-09T13:53:45;20.40;88.60
21115;DHT22;10715;48.546;9.896;2022-09-09T13:56:12;20.40;87.30
21115;DHT22;10715;48.546;9.896;2022-09-09T13:58:38;20.50;86.60
21115;DHT22;10715;48.546;9.896;2022-09-09T14:01:03;20.60;88.50
21115;DHT22;10715;48.546;9.896;2022-09-09T14:03:29;20.90;88.60
21115;DHT22;10715;48.546;9.896;2022-09-09T14:05:55;21.10;86.00
21115;DHT22;10715;48.546;9.896;2022-09-09T14:08:24;21.30;85.10
21115;DHT22;10715;48.546;9.896;2022-09-09T14:10:50;21.50;84.60
21115;DHT22;10715;48.546;9.896;2022-09-09T14:13:17;21.70;83.60
21115;DHT22;10715;48.546;9.896;2022-09-09T14:15:43;21.80;83.30
21115;DHT22;10715;48.546;9.896;2022-09-09T14:18:12;21.90;82.50
21115;DHT22;10715;48.546;9.896;2022-09-09T14:20:39;21.90;82.80
21115;DHT22;10715;48.546;9.896;2022-09-09T14:23:05;21.70;83.30
21115;DHT22;10715;48.546;9.896;2022-09-09T14:25:30;21.80;83.70
21115;DHT22;10715;48.546;9.896;2022-09-09T14:27:57;21.90;84.80
21115;DHT22;10715;48.546;9.896;2022-09-09T14:30:22;21.90;83.20
21115;DHT22;10715;48.546;9.896;2022-09-09T14:32:48;21.70;83.50
21115;DHT22;10715;48.546;9.896;2022-09-09T14:35:14;21.50;82.60
21115;DHT22;10715;48.546;9.896;2022-09-09T14:37:39;21.30;84.00
21115;DHT22;10715;48.546;9.896;2022-09-09T14:40:05;20.90;84.40
21115;DHT22;10715;48.546;9.896;2022-09-09T14:42:31;20.50;84.40
21115;DHT22;10715;48.546;9.896;2022-09-09T14:44:57;20.20;85.70
21115;DHT22;10715;48.546;9.896;2022-09-09T14:47:22;20.00;86.60
21115;DHT22;10715;48.546;9.896;2022-09-09T14:49:48;19.90;86.70
21115;DHT22;10715;48.546;9.896;2022-09-09T14:52:15;19.90;88.00
21115;DHT22;10715;48.546;9.896;2022-09-09T14:54:41;19.90;88.90
21115;DHT22;10715;48.546;9.896;2022-09-09T14:57:07;20.00;88.70
21115;DHT22;10715;48.546;9.896;2022-09-09T14:59:33;20.10;89.10
21115;DHT22;10715;48.546;9.896;2022-09-09T15:01:59;20.30;88.30
21115;DHT22;10715;48.546;9.896;2022-09-09T15:04:29;20.40;86.30
21115;DHT22;10715;48.546;9.896;2022-09-09T15:06:55;20.40;86.60
21115;DHT22;10715;48.546;9.896;2022-09-09T15:09:21;20.30;85.30
21115;DHT22;10715;48.546;9.896;2022-09-09T15:11:46;20.30;86.40
21115;DHT22;10715;48.546;9.896;2022-09-09T15:14:12;20.30;86.30
21115;DHT22;10715;48.546;9.896;2022-09-09T15:16:39;20.20;86.50
21115;DHT22;10715;48.546;9.896;2022-09-09T15:19:05;20.20;87.10
21115;DHT22;10715;48.546;9.896;2022-09-09T15:21:33;20.30;87.00
21115;DHT22;10715;48.546;9.896;2022-09-09T15:23:59;20.30;87.10
21115;DHT22;10715;48.546;9.896;2022-09-09T15:26:25;20.40;87.00
21115;DHT22;10715;48.546;9.896;2022-09-09T15:28:51;20.50;87.20
21115;DHT22;10715;48.546;9.896;2022-09-09T15:33:50;20.30;86.30
21115;DHT22;10715;48.546;9.896;2022-09-09T15:36:19;20.40;85.60
21115;DHT22;10715;48.546;9.896;2022-09-09T15:38:46;20.20;85.60
21115;DHT22;10715;48.546;9.896;2022-09-09T15:41:12;20.10;85.40
21115;DHT22;10715;48.546;9.896;2022-09-09T15:43:38;20.00;86.30
21115;DHT22;10715;48.546;9.896;2022-09-09T15:48:44;19.70;85.30
21115;DHT22;10715;48.546;9.896;2022-09-09T15:51:10;19.50;86.70
21115;DHT22;10715;48.546;9.896;2022-09-09T15:53:37;19.40;87.00
21115;DHT22;10715;48.546;9.896;2022-09-09T15:56:05;19.30;86.90
21115;DHT22;10715;48.546;9.896;2022-09-09T15:58:32;19.20;87.00
21115;DHT22;10715;48.546;9.896;2022-09-09T16:01:06;19.30;87.30
21115;DHT22;10715;48.546;9.896;2022-09-09T16:03:36;19.30;86.60
21115;DHT22;10715;48.546;9.896;2022-09-09T16:06:06;19.30;87.80
21115;DHT22;10715;48.546;9.896;2022-09-09T16:08:36;19.30;88.00
21115;DHT22;10715;48.546;9.896;2022-09-09T16:11:14;19.20;89.00
21115;DHT22;10715;48.546;9.896;2022-09-09T16:13:42;19.00;89.00
21115;DHT22;10715;48.546;9.896;2022-09-09T16:16:10;18.80;89.70
21115;DHT22;10715;48.546;9.896;2022-09-09T16:18:40;18.70;89.30
21115;DHT22;10715;48.546;9.896;2022-09-09T16:21:06;18.60;90.20
21115;DHT22;10715;48.546;9.896;2022-09-09T16:23:34;18.60;90.10
21115;DHT22;10715;48.546;9.896;2022-09-09T16:26:00;18.60;90.40
21115;DHT22;10715;48.546;9.896;2022-09-09T16:28:26;18.70;90.10
21115;DHT22;10715;48.546;9.896;2022-09-09T16:30:52;18.70;90.20
21115;DHT22;10715;48.546;9.896;2022-09-09T16:33:18;18.60;90.40
21115;DHT22;10715;48.546;9.896;2022-09-09T16:35:44;18.60;90.70
21115;DHT22;10715;48.546;9.896;2022-09-09T16:38:10;18.50;90.70
21115;DHT22;10715;48.546;9.896;2022-09-09T16:40:39;18.40;90.40
21115;DHT22;10715;48.546;9.896;2022-09-09T16:43:07;18.30;90.20
21115;DHT22;10715;48.546;9.896;2022-09-09T16:45:32;18.30;90.30
21115;DHT22;10715;48.546;9.896;2022-09-09T16:48:01;18.20;90.30
21115;DHT22;10715;48.546;9.896;2022-09-09T16:50:27;18.10;90.10
21115;DHT22;10715;48.546;9.896;2022-09-09T16:52:53;18.10;90.70
21115;DHT22;10715;48.546;9.896;2022-09-09T16:55:18;18.10;90.90
21115;DHT22;10715;48.546;9.896;2022-09-09T16:57:46;18.00;90.60
21115;DHT22;10715;48.546;9.896;2022-09-09T17:00:14;18.00;90.70
21115;DHT22;10715;48.546;9.896;2022-09-09T17:02:42;17.90;90.70
21115;DHT22;10715;48.546;9.896;2022-09-09T17:05:08;17.80;91.20
21115;DHT22;10715;48.546;9.896;2022-09-09T17:07:34;17.70;91.70
21115;DHT22;10715;48.546;9.896;2022-09-09T17:10:01;17.70;91.80
21115;DHT22;10715;48.546;9.896;2022-09-09T17:12:27;17.60;91.70
21115;DHT22;10715;48.546;9.896;2022-09-09T17:14:52;17.50;91.80
21115;DHT22;10715;48.546;9.896;2022-09-09T17:17:20;17.40;91.70
21115;DHT22;10715;48.546;9.896;2022-09-09T17:19:46;17.30;91.80
21115;DHT22;10715;48.546;9.896;2022-09-09T17:22:12;17.20;91.40
21115;DHT22;10715;48.546;9.896;2022-09-09T17:24:38;17.10;91.50
21115;DHT22;10715;48.546;9.896;2022-09-09T17:27:06;16.90;91.90
21115;DHT22;10715;48.546;9.896;2022-09-09T17:29:31;16.80;91.20
21115;DHT22;10715;48.546;9.896;2022-09-09T17:31:57;16.80;91.20
21115;DHT22;10715;48.546;9.896;2022-09-09T17:34:23;16.60;91.60
21115;DHT22;10715;48.546;9.896;2022-09-09T17:36:50;16.50;91.10
21115;DHT22;10715;48.546;9.896;2022-09-09T17:39:16;16.30;91.70
21115;DHT22;10715;48.546;9.896;2022-09-09T17:41:42;16.20;91.60
21115;DHT22;10715;48.546;9.896;2022-09-09T17:44:08;16.00;91.50
21115;DHT22;10715;48.546;9.896;2022-09-09T17:46:36;15.90;92.00
21115;DHT22;10715;48.546;9.896;2022-09-09T17:49:07;15.80;92.80
21115;DHT22;10715;48.546;9.896;2022-09-09T17:51:34;15.60;92.90
21115;DHT22;10715;48.546;9.896;2022-09-09T17:54:07;15.50;93.40
21115;DHT22;10715;48.546;9.896;2022-09-09T17:56:33;15.30;94.20
21115;DHT22;10715;48.546;9.896;2022-09-09T17:59:00;15.20;95.30
21115;DHT22;10715;48.546;9.896;2022-09-09T18:01:30;15.10;95.80
21115;DHT22;10715;48.546;9.896;2022-09-09T18:03:58;14.90;96.00
21115;DHT22;10715;48.546;9.896;2022-09-09T18:06:27;14.70;96.70
21115;DHT22;10715;48.546;9.896;2022-09-09T18:08:58;14.60;97.40
21115;DHT22;10715;48.546;9.896;2022-09-09T18:11:30;14.50;98.00
21115;DHT22;10715;48.546;9.896;2022-09-09T18:13:59;14.30;98.70
21115;DHT22;10715;48.546;9.896;2022-09-09T18:16:26;14.20;99.50
21115;DHT22;10715;48.546;9.896;2022-09-09T18:18:54;14.10;99.90
21115;DHT22;10715;48.546;9.896;2022-09-09T18:21:20;14.00;99.90
21115;DHT22;10715;48.546;9.896;2022-09-09T18:23:48;13.90;99.90
21115;DHT22;10715;48.546;9.896;2022-09-09T18:26:21;13.90;99.90